Time,TemperatureF,DewpointF,PressureIn,WindDirection,WindDirectionDegrees,WindSpeedMPH,WindSpeedGustMPH,Humidity,HourlyPrecipIn,Conditions,Clouds,dailyrainin,SoftwareType,DateUTC
2016-02-12 00:02:00,16.9,-16.3,29.44,ENE,68,0.0,0.0,21,0.00,,---,0.00,VWS V15.00,2016-02-12 05:02:00,
2016-02-12 00:07:00,17.1,-16.1,29.44,ENE,68,0.0,0.0,21,0.00,,---,0.00,VWS V15.00,2016-02-12 05:07:00,
2016-02-12 00:12:00,16.9,-16.3,29.41,ENE,68,0.0,0.0,21,0.00,,---,0.00,VWS V15.00,2016-02-12 05:12:00,
2016-02-12 00:22:00,16.0,-17.0,29.44,ENE,68,0.0,0.0,21,0.00,,---,0.00,VWS V15.00,2016-02-12 05:22:00,
2016-02-12 00:27:00,15.8,-17.2,29.44,ENE,68,75.6,630.1,21,0.00,,---,0.00,VWS V15.00,2016-02-12 05:27:00,
2016-02-12 00:32:00,15.6,-17.4,29.44,ENE,68,0.0,0.0,21,0.00,,---,0.00,VWS V15.00,2016-02-12 05:32:00,
2016-02-12 00:37:00,15.4,-17.5,29.44,ENE,68,0.0,0.0,21,0.00,,---,0.00,VWS V15.00,2016-02-12 05:37:00,
2016-02-12 00:42:00,15.3,-17.7,29.44,ENE,68,0.0,0.0,21,0.00,,---,0.00,VWS V15.00,2016-02-12 05:42:00,
2016-02-12 00:47:00,14.9,-18.0,29.44,ENE,68,0.0,0.0,21,0.00,,---,0.00,VWS V15.00,2016-02-12 05:47:00,
2016-02-12 00:52:00,14.5,-18.3,29.44,ENE,68,0.0,0.0,21,0.00,,---,0.00,VWS V15.00,2016-02-12 05:52:00,
2016-02-12 00:57:00,14.4,-18.4,29.44,ENE,68,0.0,0.0,21,0.00,,---,0.00,VWS V15.00,2016-02-12 05:57:00,
2016-02-12 01:02:00,14.5,-18.3,29.44,ENE,68,0.0,0.0,21,0.00,,---,0.00,VWS V15.00,2016-02-12 06:02:00,
2016-02-12 01:07:00,14.7,-18.1,29.44,ENE,68,0.0,0.0,21,0.00,,---,0.00,VWS V15.00,2016-02-12 06:07:00,
2016-02-12 01:12:00,14.5,-18.3,29.44,ENE,68,0.0,0.0,21,0.00,,---,0.00,VWS V15.00,2016-02-12 06:12:00,
2016-02-12 01:17:00,14.9,-18.0,29.44,ENE,68,0.0,0.0,21,0.00,,---,0.00,VWS V15.00,2016-02-12 06:17:00,
2016-02-12 01:22:00,14.9,-18.0,29.41,ENE,68,0.0,0.0,21,0.00,,---,0.00,VWS V15.00,2016-02-12 06:22:00,
2016-02-12 01:27:00,14.9,-18.0,29.41,ENE,68,0.0,0.0,21,0.00,,---,0.00,VWS V15.00,2016-02-12 06:27:00,
2016-02-12 01:37:00,14.4,-18.4,29.44,ENE,68,0.0,0.0,21,0.00,,---,0.00,VWS V15.00,2016-02-12 06:37:00,
2016-02-12 01:42:00,14.4,-18.4,29.44,ENE,68,0.0,0.0,21,0.00,,---,0.00,VWS V15.00,2016-02-12 06:42:00,
2016-02-12 01:47:00,14.4,-18.4,29.44,ENE,68,0.0,0.0,21,0.00,,---,0.00,VWS V15.00,2016-02-12 06:47:00,
2016-02-12 01:52:00,14.5,-18.3,29.41,ENE,68,0.0,0.0,21,0.00,,---,0.00,VWS V15.00,2016-02-12 06:52:00,
2016-02-12 01:57:00,14.5,-18.3,29.41,ENE,68,0.0,0.0,21,0.00,,---,0.00,VWS V15.00,2016-02-12 06:57:00,
2016-02-12 02:02:00,14.4,-18.4,29.41,ENE,68,0.0,0.0,21,0.00,,---,0.00,VWS V15.00,2016-02-12 07:02:00,
2016-02-12 02:07:00,14.2,-18.6,29.41,ENE,68,0.0,0.0,21,0.00,,---,0.00,VWS V15.00,2016-02-12 07:07:00,
2016-02-12 02:12:00,14.2,-18.6,29.41,ENE,68,0.0,0.0,21,0.00,,---,0.00,VWS V15.00,2016-02-12 07:12:00,
2016-02-12 02:17:00,13.6,-18.1,29.41,ENE,68,0.0,0.0,22,0.00,,---,0.00,VWS V15.00,2016-02-12 07:17:00,
2016-02-12 02:22:00,13.8,-18.0,29.38,ENE,68,0.0,0.0,22,0.00,,---,0.00,VWS V15.00,2016-02-12 07:22:00,
2016-02-12 02:27:00,14.0,-17.8,29.38,NE,45,0.0,0.0,22,0.00,,---,0.00,VWS V15.00,2016-02-12 07:27:00,
2016-02-12 02:32:00,14.0,-17.8,29.38,NE,45,0.0,0.0,22,0.00,,---,0.00,VWS V15.00,2016-02-12 07:32:00,
2016-02-12 02:37:00,14.0,-17.8,29.41,NE,45,0.0,0.0,22,0.00,,---,0.00,VWS V15.00,2016-02-12 07:37:00,
2016-02-12 02:42:00,14.2,-18.6,29.41,NE,45,0.0,0.0,21,0.00,,---,0.00,VWS V15.00,2016-02-12 07:42:00,
2016-02-12 02:47:00,14.4,-18.4,29.41,NE,45,0.0,0.0,21,0.00,,---,0.00,VWS V15.00,2016-02-12 07:47:00,
2016-02-12 02:52:00,14.4,-18.4,29.41,NE,45,0.0,0.0,21,0.00,,---,0.00,VWS V15.00,2016-02-12 07:52:00,
2016-02-12 02:57:00,15.1,-17.8,29.38,NNE,22,0.0,0.0,21,0.00,,---,0.00,VWS V15.00,2016-02-12 07:57:00,
2016-02-12 03:02:00,15.4,-17.5,29.38,NNE,22,0.0,0.0,21,0.00,,---,0.00,VWS V15.00,2016-02-12 08:02:00,
2016-02-12 03:07:00,15.6,-17.4,29.38,NNE,22,0.0,0.0,21,0.00,,---,0.00,VWS V15.00,2016-02-12 08:07:00,
2016-02-12 03:12:00,16.2,-16.9,29.38,NNE,22,0.0,0.0,21,0.00,,---,0.00,VWS V15.00,2016-02-12 08:12:00,
2016-02-12 03:17:00,16.5,-16.6,29.38,NE,45,0.0,0.0,21,0.00,,---,0.00,VWS V15.00,2016-02-12 08:17:00,
2016-02-12 03:22:00,16.7,-16.4,29.38,NNE,22,0.0,2.2,21,0.00,,---,0.00,VWS V15.00,2016-02-12 08:22:00,
2016-02-12 03:27:00,17.1,-16.1,29.35,NNE,22,0.0,0.9,21,0.00,,---,0.00,VWS V15.00,2016-02-12 08:27:00,
2016-02-12 03:32:00,17.4,-15.8,29.35,NE,45,1.1,1.1,21,0.00,,---,0.00,VWS V15.00,2016-02-12 08:32:00,
2016-02-12 03:37:00,17.6,-15.7,29.35,ENE,68,0.0,0.0,21,0.00,,---,0.00,VWS V15.00,2016-02-12 08:37:00,
2016-02-12 03:42:00,17.6,-15.7,29.35,NNE,22,0.0,1.1,21,0.00,,---,0.00,VWS V15.00,2016-02-12 08:42:00,
2016-02-12 03:47:00,18.0,-16.3,29.35,East,90,0.0,1.1,20,0.00,,---,0.00,VWS V15.00,2016-02-12 08:47:00,
2016-02-12 03:52:00,18.1,-16.2,29.38,SSE,158,1.6,2.2,20,0.00,,---,0.00,VWS V15.00,2016-02-12 08:52:00,
2016-02-12 03:57:00,18.3,-16.0,29.38,SSE,158,0.0,1.3,20,0.00,,---,0.00,VWS V15.00,2016-02-12 08:57:00,
2016-02-12 04:02:00,18.3,-16.0,29.38,SSE,158,0.0,0.0,20,0.00,,---,0.00,VWS V15.00,2016-02-12 09:02:00,
2016-02-12 04:12:00,18.3,-16.0,29.38,North,0,0.9,1.3,20,0.00,,---,0.00,VWS V15.00,2016-02-12 09:12:00,
2016-02-12 04:17:00,18.1,-16.2,29.38,NNE,22,0.0,0.0,20,0.00,,---,0.00,VWS V15.00,2016-02-12 09:17:00,
2016-02-12 04:22:00,18.0,-16.3,29.38,SSE,158,0.9,2.9,20,0.00,,---,0.00,VWS V15.00,2016-02-12 09:22:00,
2016-02-12 04:27:00,18.3,-16.0,29.38,ENE,68,1.1,2.7,20,0.00,,---,0.00,VWS V15.00,2016-02-12 09:27:00,
2016-02-12 04:32:00,18.1,-16.2,29.38,NNE,22,0.0,1.6,20,0.00,,---,0.00,VWS V15.00,2016-02-12 09:32:00,
2016-02-12 04:37:00,18.1,-16.2,29.38,SSE,158,1.1,1.3,20,0.00,,---,0.00,VWS V15.00,2016-02-12 09:37:00,
2016-02-12 04:42:00,18.1,-16.2,29.38,ESE,112,0.0,0.0,20,0.00,,---,0.00,VWS V15.00,2016-02-12 09:42:00,
2016-02-12 04:47:00,18.1,-16.2,29.38,East,90,0.0,1.3,20,0.00,,---,0.00,VWS V15.00,2016-02-12 09:47:00,
2016-02-12 04:52:00,18.3,-16.0,29.38,ESE,112,1.1,5.6,20,0.00,,---,0.00,VWS V15.00,2016-02-12 09:52:00,
2016-02-12 05:02:00,18.5,-15.9,29.38,ESE,112,0.0,630.1,20,0.00,,---,0.00,VWS V15.00,2016-02-12 10:02:00,
2016-02-12 05:07:00,18.5,-15.9,29.38,NE,45,0.0,0.9,20,0.00,,---,0.00,VWS V15.00,2016-02-12 10:07:00,
2016-02-12 05:12:00,18.7,-15.7,29.38,NNW,338,0.9,0.9,20,0.00,,---,0.00,VWS V15.00,2016-02-12 10:12:00,
2016-02-12 05:17:00,18.7,-15.7,29.38,NNE,22,0.0,0.0,20,0.00,,---,0.00,VWS V15.00,2016-02-12 10:17:00,
2016-02-12 05:22:00,18.7,-15.7,29.38,NNE,22,0.0,0.0,20,0.00,,---,0.00,VWS V15.00,2016-02-12 10:22:00,
2016-02-12 05:27:00,18.9,-15.6,29.38,NE,45,0.0,3.1,20,0.00,,---,0.00,VWS V15.00,2016-02-12 10:27:00,
2016-02-12 05:32:00,19.0,-15.4,29.38,North,0,1.6,1.6,20,0.00,,---,0.00,VWS V15.00,2016-02-12 10:32:00,
2016-02-12 05:37:00,19.0,-15.4,29.38,ESE,112,1.3,1.6,20,0.00,,---,0.00,VWS V15.00,2016-02-12 10:37:00,
2016-02-12 05:42:00,19.2,-15.3,29.38,ENE,68,0.0,1.3,20,0.00,,---,0.00,VWS V15.00,2016-02-12 10:42:00,
2016-02-12 05:46:00,19.2,-15.3,29.38,NE,45,0.0,0.0,20,0.00,,---,0.00,VWS V15.00,2016-02-12 10:46:00,
2016-02-12 05:51:00,19.2,-15.3,29.38,NE,45,0.0,0.0,20,0.00,,---,0.00,VWS V15.00,2016-02-12 10:51:00,
2016-02-12 05:56:00,19.2,-15.3,29.38,NNE,22,3.1,3.1,20,0.00,,---,0.00,VWS V15.00,2016-02-12 10:56:00,
2016-02-12 06:01:00,19.2,-15.3,29.38,NE,45,1.1,2.2,20,0.00,,---,0.00,VWS V15.00,2016-02-12 11:01:00,
2016-02-12 06:06:00,19.2,-15.3,29.38,NNE,22,1.1,1.6,20,0.00,,---,0.00,VWS V15.00,2016-02-12 11:06:00,
2016-02-12 06:11:00,19.2,-15.3,29.38,NE,45,0.0,0.0,20,0.00,,---,0.00,VWS V15.00,2016-02-12 11:11:00,
2016-02-12 06:16:00,19.2,-15.3,29.38,NE,45,0.0,0.0,20,0.00,,---,0.00,VWS V15.00,2016-02-12 11:16:00,
2016-02-12 06:21:00,19.2,-15.3,29.35,NE,45,0.0,0.0,20,0.00,,---,0.00,VWS V15.00,2016-02-12 11:21:00,
2016-02-12 06:26:00,19.2,-15.3,29.35,ESE,112,0.0,0.0,20,0.00,,---,0.00,VWS V15.00,2016-02-12 11:26:00,
2016-02-12 06:31:00,19.0,-15.4,29.35,ESE,112,0.0,3.6,20,0.00,,---,0.00,VWS V15.00,2016-02-12 11:31:00,
2016-02-12 06:36:00,19.0,-15.4,29.35,ESE,112,0.0,0.0,20,0.00,,---,0.00,VWS V15.00,2016-02-12 11:36:00,
2016-02-12 06:41:00,19.0,-15.4,29.35,SE,135,2.0,2.5,20,0.00,,---,0.00,VWS V15.00,2016-02-12 11:41:00,
2016-02-12 06:51:00,19.2,-15.3,29.32,SSE,158,1.3,2.5,20,0.00,,---,0.00,VWS V15.00,2016-02-12 11:51:00,
2016-02-12 06:56:00,19.2,-15.3,29.32,SSE,158,1.6,1.6,20,0.00,,---,0.00,VWS V15.00,2016-02-12 11:56:00,
2016-02-12 07:01:00,19.2,-15.3,29.32,SE,135,1.1,2.5,20,0.00,,---,0.00,VWS V15.00,2016-02-12 12:01:00,
2016-02-12 07:11:00,19.4,-15.1,29.32,SE,135,0.0,1.1,20,0.00,,---,0.00,VWS V15.00,2016-02-12 12:11:00,
2016-02-12 07:16:00,19.4,-15.1,29.32,SE,135,1.3,1.3,20,0.00,,---,0.00,VWS V15.00,2016-02-12 12:16:00,
2016-02-12 07:21:00,19.4,-15.1,29.32,South,180,1.6,1.6,20,0.00,,---,0.00,VWS V15.00,2016-02-12 12:21:00,
2016-02-12 07:26:00,19.4,-15.1,29.32,SSE,158,1.1,1.6,20,0.00,,---,0.00,VWS V15.00,2016-02-12 12:26:00,
2016-02-12 07:31:00,19.6,-15.0,29.32,SSE,158,0.0,0.0,20,0.00,,---,0.00,VWS V15.00,2016-02-12 12:31:00,
2016-02-12 07:36:00,19.6,-15.0,29.32,SSE,158,0.0,1.3,20,0.00,,---,0.00,VWS V15.00,2016-02-12 12:36:00,
2016-02-12 07:41:00,19.8,-14.8,29.32,SSE,158,0.0,0.0,20,0.00,,---,0.00,VWS V15.00,2016-02-12 12:41:00,
2016-02-12 07:46:00,19.8,-14.8,29.32,SSE,158,1.3,1.6,20,0.00,,---,0.00,VWS V15.00,2016-02-12 12:46:00,
2016-02-12 07:51:00,19.8,-14.8,29.32,SSE,158,1.3,1.3,20,0.00,,---,0.00,VWS V15.00,2016-02-12 12:51:00,
2016-02-12 07:56:00,19.9,-14.7,29.29,SSE,158,1.6,2.5,20,0.00,,---,0.00,VWS V15.00,2016-02-12 12:56:00,
2016-02-12 08:01:00,19.9,-14.7,29.29,SSE,158,0.0,1.6,20,0.00,,---,0.00,VWS V15.00,2016-02-12 13:01:00,
2016-02-12 08:06:00,20.1,-14.5,29.35,SSE,158,1.6,1.6,20,0.00,,---,0.00,VWS V15.00,2016-02-12 13:06:00,
2016-02-12 08:11:00,20.3,-14.4,29.35,SSW,202,1.3,2.7,20,0.00,,---,0.00,VWS V15.00,2016-02-12 13:11:00,
2016-02-12 08:16:00,20.5,-14.2,29.35,South,180,1.3,1.3,20,0.00,,---,0.00,VWS V15.00,2016-02-12 13:16:00,
2016-02-12 08:26:00,21.6,-13.3,29.32,South,180,0.0,2.5,20,0.00,,---,0.00,VWS V15.00,2016-02-12 13:26:00,
2016-02-12 08:31:00,21.6,-13.3,29.32,SSW,202,2.7,2.7,20,0.00,,---,0.00,VWS V15.00,2016-02-12 13:31:00,
2016-02-12 08:36:00,21.6,-13.3,29.32,SSW,202,1.6,2.7,20,0.00,,---,0.00,VWS V15.00,2016-02-12 13:36:00,
2016-02-12 08:41:00,21.9,-13.0,29.32,South,180,0.9,0.9,20,0.00,,---,0.00,VWS V15.00,2016-02-12 13:41:00,
2016-02-12 08:46:00,23.0,-12.1,29.32,SE,135,2.7,2.9,20,0.00,,---,0.00,VWS V15.00,2016-02-12 13:46:00,
2016-02-12 08:51:00,23.0,-12.1,29.32,SSW,202,1.3,2.0,20,0.00,,---,0.00,VWS V15.00,2016-02-12 13:51:00,
2016-02-12 08:56:00,23.5,-9.7,29.32,SSW,202,2.9,3.1,22,0.00,,---,0.00,VWS V15.00,2016-02-12 13:56:00,
2016-02-12 09:06:00,23.7,-9.6,29.32,South,180,2.5,2.7,22,0.00,,---,0.00,VWS V15.00,2016-02-12 14:06:00,
2016-02-12 09:11:00,23.9,-9.4,29.32,SE,135,2.5,2.7,22,0.00,,---,0.00,VWS V15.00,2016-02-12 14:11:00,
2016-02-12 09:16:00,24.3,-9.1,29.32,SE,135,2.7,3.6,22,0.00,,---,0.00,VWS V15.00,2016-02-12 14:16:00,
2016-02-12 09:21:00,24.1,-9.2,29.29,South,180,3.8,3.8,22,0.00,,---,0.00,VWS V15.00,2016-02-12 14:21:00,
2016-02-12 09:26:00,24.3,-9.1,29.29,South,180,2.0,3.4,22,0.00,,---,0.00,VWS V15.00,2016-02-12 14:26:00,
2016-02-12 09:36:00,25.2,-9.3,29.29,SSW,202,2.7,3.4,21,0.00,,---,0.00,VWS V15.00,2016-02-12 14:36:00,
2016-02-12 09:41:00,25.3,-9.1,29.29,WSW,248,3.1,4.0,21,0.00,,---,0.00,VWS V15.00,2016-02-12 14:41:00,
2016-02-12 09:46:00,25.3,-9.1,29.29,South,180,2.7,2.9,21,0.00,,---,0.00,VWS V15.00,2016-02-12 14:46:00,
2016-02-12 09:51:00,24.8,-8.6,29.32,South,180,3.1,4.9,22,0.00,,---,0.00,VWS V15.00,2016-02-12 14:51:00,
2016-02-12 09:56:00,25.0,-9.4,29.32,SW,225,2.7,2.7,21,0.00,,---,0.00,VWS V15.00,2016-02-12 14:56:00,
2016-02-12 10:01:00,25.0,-9.4,29.32,South,180,3.8,3.8,21,0.00,,---,0.00,VWS V15.00,2016-02-12 15:01:00,
2016-02-12 10:06:00,24.8,-8.6,29.32,SSW,202,5.6,5.6,22,0.00,,---,0.00,VWS V15.00,2016-02-12 15:06:00,
2016-02-12 10:11:00,25.2,-9.3,29.29,SSW,202,3.8,3.8,21,0.00,,---,0.00,VWS V15.00,2016-02-12 15:11:00,
2016-02-12 10:16:00,25.3,-9.1,29.29,SW,225,3.8,3.8,21,0.00,,---,0.00,VWS V15.00,2016-02-12 15:16:00,
2016-02-12 10:21:00,24.8,-8.6,29.32,SSW,202,2.9,2.9,22,0.00,,---,0.00,VWS V15.00,2016-02-12 15:21:00,
2016-02-12 10:26:00,25.2,-9.3,29.32,South,180,2.0,2.7,21,0.00,,---,0.00,VWS V15.00,2016-02-12 15:26:00,
2016-02-12 10:31:00,25.0,-9.4,29.32,South,180,3.6,3.6,21,0.00,,---,0.00,VWS V15.00,2016-02-12 15:31:00,
2016-02-12 10:36:00,25.5,-9.0,29.32,SW,225,2.0,2.0,21,0.00,,---,0.00,VWS V15.00,2016-02-12 15:36:00,
2016-02-12 10:41:00,26.4,-8.2,29.32,SW,225,2.5,2.7,21,0.00,,---,0.00,VWS V15.00,2016-02-12 15:41:00,
2016-02-12 10:46:00,26.8,-7.9,29.32,WSW,248,2.5,2.5,21,0.00,,---,0.00,VWS V15.00,2016-02-12 15:46:00,
2016-02-12 10:51:00,27.0,-7.8,29.32,SSW,202,3.1,3.6,21,0.00,,---,0.00,VWS V15.00,2016-02-12 15:51:00,
2016-02-12 10:56:00,26.8,-7.9,29.32,SSW,202,2.9,2.9,21,0.00,,---,0.00,VWS V15.00,2016-02-12 15:56:00,
2016-02-12 11:01:00,27.3,-7.4,29.32,SSE,158,3.1,4.0,21,0.00,,---,0.00,VWS V15.00,2016-02-12 16:01:00,
2016-02-12 11:06:00,28.9,-7.1,29.32,WSW,248,6.5,6.5,20,0.00,,---,0.00,VWS V15.00,2016-02-12 16:06:00,
2016-02-12 11:11:00,28.0,-6.8,29.32,SW,225,4.3,4.3,21,0.00,,---,0.00,VWS V15.00,2016-02-12 16:11:00,
2016-02-12 11:21:00,28.2,-6.7,29.32,West,270,5.6,5.6,21,0.00,,---,0.00,VWS V15.00,2016-02-12 16:21:00,
2016-02-12 11:26:00,29.1,-6.9,29.32,WSW,248,4.3,4.3,20,0.00,,---,0.00,VWS V15.00,2016-02-12 16:26:00,